Time;durP1;ratioP1;P1;durP2;ratioP2;P2;SDS_P1;SDS_P2;PMS_P1;PMS_P2;Temp;Humidity;BMP_temperature;BMP_pressure;BME280_temperature;BME280_humidity;BME280_pressure;Samples;Min_cycle;Max_cycle;Signal;HPM_P1;HPM_P2
2022/03/20 00:00:16;;;;;;;40.13;36.70;;;;;;;;;;4975341;28;20822;-85
2022/03/20 00:02:44;;;;;;;40.47;36.73;;;;;;;;;;4975918;28;20195;-86
2022/03/20 00:05:12;;;;;;;39.10;35.60;;;;;;;;;;4975806;28;20796;-86
2022/03/20 00:07:40;;;;;;;40.27;36.97;;;;;;;;;;4975764;28;20464;-86
2022/03/20 00:10:08;;;;;;;40.50;36.70;;;;;;;;;;4975049;28;20416;-86
2022/03/20 00:12:35;;;;;;;40.83;37.20;;;;;;;;;;4975136;28;20421;-86
2022/03/20 00:15:03;;;;;;;40.63;36.42;;;;;;;;;;4975106;28;20505;-86
2022/03/20 00:17:30;;;;;;;41.05;37.30;;;;;;;;;;4975052;28;20214;-86
2022/03/20 00:19:57;;;;;;;33.25;30.40;;;;;;;;;;4974573;28;20246;-86
2022/03/20 00:22:26;;;;;;;40.35;37.03;;;;;;;;;;4974571;28;20191;-86
2022/03/20 00:24:54;;;;;;;39.13;35.50;;;;;;;;;;4975027;28;20195;-86
2022/03/20 00:27:21;;;;;;;38.27;35.17;;;;;;;;;;4974930;28;20414;-86
2022/03/20 00:29:49;;;;;;;39.78;36.38;;;;;;;;;;4975036;28;20449;-86
2022/03/20 00:32:16;;;;;;;40.00;36.53;;;;;;;;;;4974801;28;20642;-86
2022/03/20 00:34:43;;;;;;;36.05;33.08;;;;;;;;;;4975004;28;20202;-86
2022/03/20 00:37:11;;;;;;;39.28;36.08;;;;;;;;;;4974947;28;20200;-87
2022/03/20 00:39:39;;;;;;;39.95;36.50;;;;;;;;;;4974592;28;20195;-86
2022/03/20 00:42:07;;;;;;;29.95;27.55;;;;;;;;;;4974879;28;20195;-86
2022/03/20 00:44:34;;;;;;;39.87;36.47;;;;;;;;;;4974819;28;20187;-86
2022/03/20 00:47:01;;;;;;;39.67;36.47;;;;;;;;;;4974539;28;20439;-85
2022/03/20 00:49:30;;;;;;;40.03;36.53;;;;;;;;;;4974598;28;20409;-86
2022/03/20 00:51:58;;;;;;;39.17;35.80;;;;;;;;;;4974700;28;20274;-86
2022/03/20 00:54:25;;;;;;;38.40;34.78;;;;;;;;;;4974794;28;20196;-86
2022/03/20 00:56:54;;;;;;;41.15;37.65;;;;;;;;;;4974754;28;20188;-86
2022/03/20 00:59:21;;;;;;;36.08;32.97;;;;;;;;;;4974673;28;20202;-86
2022/03/20 01:01:49;;;;;;;38.20;34.73;;;;;;;;;;4974458;28;20250;-86
2022/03/20 01:04:16;;;;;;;38.42;34.97;;;;;;;;;;4974296;28;20422;-85
2022/03/20 01:06:44;;;;;;;39.70;36.10;;;;;;;;;;4974704;28;20282;-86
2022/03/20 01:09:11;;;;;;;39.70;36.17;;;;;;;;;;4974579;28;20191;-86
2022/03/20 01:11:39;;;;;;;40.80;37.17;;;;;;;;;;4974320;28;20506;-86
2022/03/20 01:14:08;;;;;;;35.53;32.72;;;;;;;;;;4974542;28;20294;-85
2022/03/20 01:16:35;;;;;;;39.88;36.58;;;;;;;;;;4974174;28;20231;-85
2022/03/20 01:19:03;;;;;;;34.33;31.25;;;;;;;;;;4974056;28;20199;-85
2022/03/20 01:21:31;;;;;;;38.70;35.50;;;;;;;;;;4974655;28;20215;-86
2022/03/20 01:23:58;;;;;;;36.53;33.42;;;;;;;;;;4974359;28;20497;-85
2022/03/20 01:26:25;;;;;;;37.55;34.22;;;;;;;;;;4974194;28;20254;-86
2022/03/20 01:28:52;;;;;;;37.35;34.22;;;;;;;;;;4973553;28;20203;-85
2022/03/20 01:31:21;;;;;;;37.80;34.88;;;;;;;;;;4973834;28;20227;-86
2022/03/20 01:33:48;;;;;;;40.92;37.47;;;;;;;;;;4977008;28;20610;-86
2022/03/20 01:36:16;;;;;;;39.30;35.67;;;;;;;;;;4977108;28;20705;-86
2022/03/20 01:38:43;;;;;;;38.10;34.75;;;;;;;;;;4977741;28;20199;-85
2022/03/20 01:41:10;;;;;;;38.22;35.03;;;;;;;;;;4977598;28;20202;-86
2022/03/20 01:43:38;;;;;;;38.80;35.50;;;;;;;;;;4977661;28;20188;-86
2022/03/20 01:46:05;;;;;;;40.42;37.13;;;;;;;;;;4977652;28;20441;-85
2022/03/20 01:48:34;;;;;;;32.33;29.50;;;;;;;;;;4977465;28;20200;-85
2022/03/20 01:51:01;;;;;;;39.53;35.78;;;;;;;;;;4977578;28;20223;-86
2022/03/20 01:53:29;;;;;;;37.17;34.00;;;;;;;;;;4977590;28;20195;-85
2022/03/20 01:55:57;;;;;;;37.30;34.10;;;;;;;;;;4977063;28;20203;-86
2022/03/20 01:58:25;;;;;;;40.42;36.63;;;;;;;;;;4977394;28;20290;-86
2022/03/20 02:00:52;;;;;;;40.47;36.77;;;;;;;;;;4977366;28;20634;-84
2022/03/20 02:03:20;;;;;;;38.17;34.80;;;;;;;;;;4977335;28;20446;-86
2022/03/20 02:05:48;;;;;;;39.50;36.03;;;;;;;;;;4977190;28;20278;-86
2022/03/20 02:08:16;;;;;;;38.95;35.47;;;;;;;;;;4976624;28;20195;-86
2022/03/20 02:10:44;;;;;;;37.47;34.17;;;;;;;;;;4977003;28;20234;-86
2022/03/20 02:13:11;;;;;;;35.00;32.17;;;;;;;;;;4976877;28;20203;-86
2022/03/20 02:15:38;;;;;;;41.28;37.72;;;;;;;;;;4976933;28;20195;-86
2022/03/20 02:18:07;;;;;;;38.72;35.53;;;;;;;;;;4976832;28;20206;-86
2022/03/20 02:20:35;;;;;;;36.75;33.65;;;;;;;;;;4976908;28;20289;-85
2022/03/20 02:23:03;;;;;;;38.65;35.15;;;;;;;;;;4976775;28;20199;-85
2022/03/20 02:25:30;;;;;;;36.33;33.60;;;;;;;;;;4976656;28;20192;-86
2022/03/20 02:27:58;;;;;;;37.58;34.25;;;;;;;;;;4976713;28;20278;-86
2022/03/20 02:30:30;;;;;;;39.00;35.72;;;;;;;;;;4976858;28;20227;-86
2022/03/20 02:32:57;;;;;;;34.00;31.25;;;;;;;;;;4976410;28;20255;-86
2022/03/20 02:35:26;;;;;;;35.90;32.97;;;;;;;;;;4976653;28;20222;-86
2022/03/20 02:37:54;;;;;;;38.50;35.30;;;;;;;;;;4976511;28;20246;-84
2022/03/20 02:40:23;;;;;;;37.72;34.78;;;;;;;;;;4976822;28;20697;-86
2022/03/20 02:42:54;;;;;;;39.00;35.75;;;;;;;;;;4976940;28;20647;-85
2022/03/20 02:45:22;;;;;;;34.17;31.25;;;;;;;;;;4975311;28;20195;-86
2022/03/20 02:47:50;;;;;;;37.22;34.08;;;;;;;;;;4976726;28;20195;-86
2022/03/20 02:50:19;;;;;;;34.15;31.35;;;;;;;;;;4976106;28;20638;-85
2022/03/20 02:52:47;;;;;;;37.83;34.80;;;;;;;;;;4976447;28;20555;-86
2022/03/20 02:55:15;;;;;;;34.83;31.83;;;;;;;;;;4976027;28;20203;-85
2022/03/20 02:57:45;;;;;;;33.90;31.30;;;;;;;;;;4975969;28;20218;-86
2022/03/20 03:00:13;;;;;;;37.80;34.20;;;;;;;;;;4976461;28;20298;-86
2022/03/20 03:02:43;;;;;;;39.15;35.67;;;;;;;;;;4976363;28;20318;-86
2022/03/20 03:05:11;;;;;;;36.97;33.97;;;;;;;;;;4976291;28;20597;-87
2022/03/20 03:13:09;;;;;;;36.45;33.55;;;;;;;;;;4975776;28;20226;-86
2022/03/20 03:15:36;;;;;;;36.25;33.33;;;;;;;;;;4976065;28;20192;-86
2022/03/20 03:18:04;;;;;;;37.47;33.97;;;;;;;;;;4976051;28;20257;-85
2022/03/20 03:20:31;;;;;;;37.97;34.80;;;;;;;;;;4975759;28;20238;-86
2022/03/20 03:22:58;;;;;;;40.28;36.88;;;;;;;;;;4975663;28;20207;-86
2022/03/20 03:25:26;;;;;;;35.50;32.60;;;;;;;;;;4975941;28;20195;-86
2022/03/20 03:27:54;;;;;;;38.53;35.03;;;;;;;;;;4975843;28;20266;-86
2022/03/20 03:30:22;;;;;;;38.22;34.83;;;;;;;;;;4975672;28;20254;-86
2022/03/20 03:32:50;;;;;;;38.53;35.28;;;;;;;;;;4975838;28;20227;-85
2022/03/20 03:38:02;;;;;;;38.78;35.38;;;;;;;;;;4975359;28;20202;-86
2022/03/20 03:40:30;;;;;;;37.58;34.47;;;;;;;;;;4975626;28;20622;-87
2022/03/20 03:42:59;;;;;;;37.10;33.70;;;;;;;;;;4975324;28;20196;-86
2022/03/20 03:45:29;;;;;;;37.60;34.35;;;;;;;;;;4975600;28;20278;-86
2022/03/20 03:47:57;;;;;;;36.05;32.78;;;;;;;;;;4975454;28;20224;-86
2022/03/20 03:50:24;;;;;;;37.38;34.08;;;;;;;;;;4975541;28;20196;-86
2022/03/20 03:52:52;;;;;;;36.97;33.90;;;;;;;;;;4975124;28;20270;-86
2022/03/20 03:55:30;;;;;;;38.90;35.35;;;;;;;;;;4975078;28;20254;-86
2022/03/20 03:57:57;;;;;;;36.03;33.03;;;;;;;;;;4975449;28;20895;-86
2022/03/20 04:00:26;;;;;;;35.67;32.85;;;;;;;;;;4975284;28;20650;-86
2022/03/20 04:02:55;;;;;;;33.92;31.13;;;;;;;;;;4975084;28;20279;-86
2022/03/20 04:05:22;;;;;;;37.17;34.17;;;;;;;;;;4975257;28;20201;-85
2022/03/20 04:07:49;;;;;;;37.88;34.55;;;;;;;;;;4975231;28;20195;-86
2022/03/20 04:10:17;;;;;;;38.22;34.75;;;;;;;;;;4975259;28;20199;-86
2022/03/20 04:12:45;;;;;;;36.42;33.10;;;;;;;;;;4975158;28;20220;-86
2022/03/20 04:15:13;;;;;;;35.97;33.28;;;;;;;;;;4975099;28;20201;-85
2022/03/20 04:17:42;;;;;;;37.53;34.08;;;;;;;;;;4974863;28;20196;-87
2022/03/20 04:20:12;;;;;;;36.97;33.83;;;;;;;;;;4974953;28;20322;-86
2022/03/20 04:23:42;;;;;;;37.10;33.30;;;;;;;;;;4975193;28;20219;-86
2022/03/20 04:25:28;;;;;;;38.40;35.10;;;;;;;;;;4974605;28;20274;-84
2022/03/20 04:27:56;;;;;;;37.25;34.20;;;;;;;;;;4975049;28;20593;-86
2022/03/20 04:30:25;;;;;;;40.08;36.38;;;;;;;;;;4977020;28;20231;-86
2022/03/20 04:32:52;;;;;;;38.30;34.63;;;;;;;;;;4974907;28;20301;-88
2022/03/20 04:35:22;;;;;;;37.88;34.65;;;;;;;;;;4974708;28;20204;-86
2022/03/20 04:37:49;;;;;;;37.58;34.28;;;;;;;;;;4974506;28;20230;-87
2022/03/20 04:40:17;;;;;;;38.50;35.28;;;;;;;;;;4974705;28;20191;-86
2022/03/20 04:42:44;;;;;;;38.45;35.15;;;;;;;;;;4974922;28;20188;-86
2022/03/20 04:45:12;;;;;;;38.33;35.13;;;;;;;;;;4974935;28;20558;-86
2022/03/20 04:58:43;;;;;;;37.03;33.72;;;;;;;;;;4974425;28;20195;-84
2022/03/20 05:01:11;;;;;;;36.92;33.63;;;;;;;;;;4974756;28;20282;-83
2022/03/20 05:03:39;;;;;;;32.65;30.20;;;;;;;;;;4974786;28;20223;-84
2022/03/20 05:06:07;;;;;;;38.08;34.97;;;;;;;;;;4974618;28;20200;-84
2022/03/20 05:08:36;;;;;;;44.92;35.35;;;;;;;;;;4977245;28;20199;-84
2022/03/20 05:13:48;;;;;;;40.05;36.35;;;;;;;;;;4978531;28;20226;-84
2022/03/20 05:16:15;;;;;;;40.15;36.55;;;;;;;;;;4978098;28;20195;-83
2022/03/20 05:18:42;;;;;;;34.55;31.38;;;;;;;;;;4977555;28;20199;-84
2022/03/20 05:21:11;;;;;;;36.03;32.78;;;;;;;;;;4977618;28;20238;-84
2022/03/20 05:23:39;;;;;;;39.03;35.35;;;;;;;;;;4977832;28;20207;-83
2022/03/20 05:26:06;;;;;;;38.88;35.47;;;;;;;;;;4977860;28;20192;-83
2022/03/20 05:28:33;;;;;;;36.35;33.25;;;;;;;;;;4977911;28;20208;-83
2022/03/20 05:31:01;;;;;;;37.20;34.30;;;;;;;;;;4977644;28;20195;-84
2022/03/20 05:33:29;;;;;;;37.50;34.25;;;;;;;;;;4977710;28;20230;-82
2022/03/20 05:35:56;;;;;;;39.22;35.42;;;;;;;;;;4977878;28;20223;-83
2022/03/20 05:38:25;;;;;;;39.22;35.83;;;;;;;;;;4977804;28;20195;-83
2022/03/20 05:41:43;;;;;;;37.53;34.45;;;;;;;;;;4977515;28;20213;-82
2022/03/20 05:43:41;;;;;;;37.75;34.60;;;;;;;;;;4977102;28;20207;-84
2022/03/20 05:46:09;;;;;;;35.58;32.45;;;;;;;;;;4977658;28;20598;-84
2022/03/20 05:48:37;;;;;;;41.25;37.50;;;;;;;;;;4977486;28;20293;-84
2022/03/20 05:51:05;;;;;;;37.95;34.38;;;;;;;;;;4977192;28;20218;-83
2022/03/20 05:53:33;;;;;;;39.95;36.25;;;;;;;;;;4977364;28;20234;-83
2022/03/20 05:58:46;;;;;;;39.30;35.67;;;;;;;;;;4977039;28;20203;-84
2022/03/20 06:01:13;;;;;;;37.17;33.90;;;;;;;;;;4977335;28;20188;-84
2022/03/20 06:03:40;;;;;;;35.25;32.05;;;;;;;;;;4977032;28;20223;-84
2022/03/20 06:06:08;;;;;;;39.33;35.83;;;;;;;;;;4977362;28;20527;-84
2022/03/20 06:08:38;;;;;;;39.25;35.55;;;;;;;;;;4976789;28;20207;-84
2022/03/20 06:11:06;;;;;;;35.70;32.83;;;;;;;;;;4977012;28;20200;-83
2022/03/20 06:13:35;;;;;;;38.92;35.38;;;;;;;;;;4976876;28;20223;-84
2022/03/20 06:16:02;;;;;;;37.70;34.30;;;;;;;;;;4976988;28;20550;-84
2022/03/20 06:18:30;;;;;;;42.78;38.88;;;;;;;;;;4976581;28;20191;-83
2022/03/20 06:20:58;;;;;;;44.97;40.75;;;;;;;;;;4976503;28;20246;-83
2022/03/20 06:23:27;;;;;;;34.88;32.13;;;;;;;;;;4976688;28;20287;-84
2022/03/20 06:25:56;;;;;;;46.88;42.20;;;;;;;;;;4976962;28;20208;-84
2022/03/20 06:28:23;;;;;;;39.42;35.90;;;;;;;;;;4976263;28;20195;-83
2022/03/20 06:30:51;;;;;;;39.97;36.22;;;;;;;;;;4976702;28;20295;-84
2022/03/20 06:33:18;;;;;;;44.08;40.03;;;;;;;;;;4976214;28;20223;-83
2022/03/20 06:35:45;;;;;;;42.60;38.67;;;;;;;;;;4976403;28;20204;-83
2022/03/20 06:38:13;;;;;;;39.67;36.15;;;;;;;;;;4976435;28;20196;-83
2022/03/20 06:40:40;;;;;;;40.15;36.40;;;;;;;;;;4976457;28;20195;-83
2022/03/20 06:43:09;;;;;;;36.42;33.33;;;;;;;;;;4976122;28;20693;-83
2022/03/20 06:45:36;;;;;;;36.70;33.55;;;;;;;;;;4976182;28;20710;-83
2022/03/20 06:48:04;;;;;;;38.25;34.65;;;;;;;;;;4976270;28;20587;-83
2022/03/20 06:50:31;;;;;;;42.92;38.38;;;;;;;;;;4976073;28;20196;-85
2022/03/20 06:53:03;;;;;;;38.65;35.05;;;;;;;;;;4976346;28;20220;-84
2022/03/20 06:55:31;;;;;;;41.65;38.00;;;;;;;;;;4976424;28;20192;-86
2022/03/20 06:57:59;;;;;;;38.10;34.60;;;;;;;;;;4975666;28;20192;-85
2022/03/20 07:00:28;;;;;;;42.35;38.58;;;;;;;;;;4975885;28;20199;-85
2022/03/20 07:02:55;;;;;;;39.53;36.03;;;;;;;;;;4976097;28;20195;-86
2022/03/20 07:05:23;;;;;;;42.08;37.97;;;;;;;;;;4975747;28;20238;-86
2022/03/20 07:07:51;;;;;;;38.10;34.85;;;;;;;;;;4975797;28;20203;-85
2022/03/20 07:10:21;;;;;;;42.83;38.28;;;;;;;;;;4976077;28;20279;-86
2022/03/20 07:12:50;;;;;;;40.10;36.40;;;;;;;;;;4975898;28;20230;-85
2022/03/20 07:15:17;;;;;;;35.30;32.50;;;;;;;;;;4975877;28;20708;-85
2022/03/20 07:17:47;;;;;;;42.45;38.25;;;;;;;;;;4975457;28;20880;-84
2022/03/20 07:20:16;;;;;;;36.22;33.20;;;;;;;;;;4975337;28;20235;-83
2022/03/20 07:22:44;;;;;;;39.92;36.38;;;;;;;;;;4975846;28;20199;-83
2022/03/20 07:30:41;;;;;;;37.35;33.92;;;;;;;;;;4974837;28;20585;-84
2022/03/20 07:33:11;;;;;;;37.10;34.00;;;;;;;;;;4975616;28;20647;-84
2022/03/20 07:35:39;;;;;;;36.47;33.05;;;;;;;;;;4975350;28;20187;-84
2022/03/20 07:38:07;;;;;;;42.30;38.63;;;;;;;;;;4975317;28;20192;-84
2022/03/20 07:40:34;;;;;;;36.20;32.60;;;;;;;;;;4975455;28;20200;-83
2022/03/20 07:43:01;;;;;;;37.72;34.08;;;;;;;;;;4975306;28;20192;-82
2022/03/20 07:45:29;;;;;;;37.88;34.38;;;;;;;;;;4975255;28;20192;-83
2022/03/20 07:47:56;;;;;;;37.88;34.40;;;;;;;;;;4975052;28;20192;-83
2022/03/20 07:50:25;;;;;;;39.92;36.25;;;;;;;;;;4975656;28;20254;-84
2022/03/20 07:52:52;;;;;;;41.47;37.97;;;;;;;;;;4974682;28;20922;-84
2022/03/20 07:55:20;;;;;;;40.30;36.75;;;;;;;;;;4975218;28;20195;-84
2022/03/20 07:57:47;;;;;;;36.73;33.73;;;;;;;;;;4974959;28;20609;-84
2022/03/20 08:00:15;;;;;;;39.17;35.55;;;;;;;;;;4974955;28;20494;-84
2022/03/20 08:02:42;;;;;;;44.50;40.58;;;;;;;;;;4975179;28;20195;-83
2022/03/20 08:05:10;;;;;;;39.20;35.78;;;;;;;;;;4974688;28;20287;-84
2022/03/20 08:07:39;;;;;;;40.53;37.10;;;;;;;;;;4974804;28;20202;-84
2022/03/20 08:10:07;;;;;;;38.83;35.30;;;;;;;;;;4974711;28;20188;-84
2022/03/20 08:12:34;;;;;;;41.03;37.60;;;;;;;;;;4974774;28;20191;-83
2022/03/20 08:15:02;;;;;;;39.20;35.30;;;;;;;;;;4974828;28;20238;-83
2022/03/20 08:17:30;;;;;;;39.83;36.33;;;;;;;;;;4974716;28;20258;-82
2022/03/20 08:19:57;;;;;;;42.70;38.90;;;;;;;;;;4974149;28;20241;-83
2022/03/20 08:22:26;;;;;;;45.08;40.80;;;;;;;;;;4974910;28;20426;-86
2022/03/20 08:24:54;;;;;;;40.65;36.85;;;;;;;;;;4974364;28;20646;-83
2022/03/20 08:27:23;;;;;;;40.40;36.70;;;;;;;;;;4974560;28;20278;-84
2022/03/20 08:29:51;;;;;;;39.25;35.80;;;;;;;;;;4974709;28;20285;-83
2022/03/20 08:32:22;;;;;;;41.25;37.35;;;;;;;;;;4974915;28;20192;-84
2022/03/20 08:34:49;;;;;;;40.50;37.08;;;;;;;;;;4974355;28;20226;-82
2022/03/20 08:37:17;;;;;;;38.83;35.63;;;;;;;;;;4974401;28;20208;-84
2022/03/20 08:39:44;;;;;;;40.05;36.50;;;;;;;;;;4974642;28;20199;-82
2022/03/20 08:42:13;;;;;;;42.08;38.30;;;;;;;;;;4976480;28;20662;-87
2022/03/20 08:44:40;;;;;;;40.07;36.63;;;;;;;;;;4978378;28;20638;-85
2022/03/20 08:47:08;;;;;;;38.37;35.07;;;;;;;;;;4978954;28;20414;-85
2022/03/20 08:49:35;;;;;;;43.80;39.75;;;;;;;;;;4978664;28;20443;-84
2022/03/20 08:52:02;;;;;;;40.90;37.17;;;;;;;;;;4978258;28;20203;-81
2022/03/20 08:54:30;;;;;;;43.30;39.40;;;;;;;;;;4979232;28;20223;-91
2022/03/20 08:56:57;;;;;;;42.87;38.53;;;;;;;;;;4981898;28;20535;-90
2022/03/20 08:59:26;;;;;;;45.00;40.70;;;;;;;;;;4981995;28;20473;-89
2022/03/20 09:01:53;;;;;;;40.35;36.85;;;;;;;;;;4981173;28;20451;-92
2022/03/20 09:04:21;;;;;;;45.17;41.20;;;;;;;;;;4980073;28;20199;-86
2022/03/20 09:06:49;;;;;;;47.70;43.63;;;;;;;;;;4978431;28;20450;-85
2022/03/20 09:09:17;;;;;;;43.40;39.50;;;;;;;;;;4978691;28;20192;-84
2022/03/20 09:11:45;;;;;;;39.00;35.50;;;;;;;;;;4978048;28;20803;-86
2022/03/20 09:14:12;;;;;;;45.10;41.08;;;;;;;;;;4978118;28;20788;-86
2022/03/20 09:19:26;;;;;;;41.23;37.70;;;;;;;;;;4978466;28;20242;-92
2022/03/20 09:21:53;;;;;;;41.05;37.40;;;;;;;;;;4978724;28;20429;-86
2022/03/20 09:24:20;;;;;;;42.87;39.00;;;;;;;;;;4978499;28;20199;-86
2022/03/20 09:26:48;;;;;;;44.30;40.17;;;;;;;;;;4978305;28;20418;-86
2022/03/20 09:29:16;;;;;;;37.77;34.63;;;;;;;;;;4978202;28;20235;-87
2022/03/20 09:31:47;;;;;;;38.97;34.87;;;;;;;;;;4977858;28;20421;-83
2022/03/20 09:34:16;;;;;;;43.83;39.87;;;;;;;;;;4977162;28;20527;-84
2022/03/20 09:36:43;;;;;;;41.10;37.37;;;;;;;;;;4977038;28;20553;-83
2022/03/20 09:39:10;;;;;;;41.50;37.90;;;;;;;;;;4976986;28;20959;-83
2022/03/20 09:41:40;;;;;;;42.27;38.20;;;;;;;;;;4977093;28;20502;-83
2022/03/20 09:44:08;;;;;;;42.67;38.83;;;;;;;;;;4977229;28;20880;-83
2022/03/20 09:46:36;;;;;;;42.03;38.33;;;;;;;;;;4977198;28;20418;-82
2022/03/20 09:49:06;;;;;;;43.07;39.13;;;;;;;;;;4977018;28;20858;-82
2022/03/20 09:51:34;;;;;;;43.57;39.70;;;;;;;;;;4976829;28;20504;-82
2022/03/20 09:54:01;;;;;;;41.80;38.30;;;;;;;;;;4976323;28;20548;-83
2022/03/20 09:56:30;;;;;;;163.07;133.82;;;;;;;;;;4976415;28;20799;-82
2022/03/20 09:58:57;;;;;;;42.00;38.40;;;;;;;;;;4959087;28;20258;-82
2022/03/20 10:01:24;;;;;;;40.27;36.47;;;;;;;;;;4976988;28;20906;-81
2022/03/20 10:04:07;;;;;;;40.03;36.13;;;;;;;;;;4976984;28;20418;-81
2022/03/20 10:06:38;;;;;;;48.63;44.47;;;;;;;;;;4976948;28;20421;-85
2022/03/20 10:09:06;;;;;;;43.73;39.63;;;;;;;;;;4976808;28;20802;-81
2022/03/20 10:11:35;;;;;;;56.97;51.77;;;;;;;;;;4976212;28;20446;-77
2022/03/20 10:14:14;;;;;;;42.13;38.03;;;;;;;;;;4959765;28;20461;-82
2022/03/20 10:16:43;;;;;;;37.70;34.10;;;;;;;;;;4976470;28;20417;-82
2022/03/20 10:19:32;;;;;;;41.67;37.93;;;;;;;;;;4976386;28;20541;-82
2022/03/20 10:22:05;;;;;;;43.27;39.33;;;;;;;;;;4976901;28;20409;-82
2022/03/20 10:24:33;;;;;;;43.07;39.20;;;;;;;;;;4976450;28;20417;-81
2022/03/20 10:27:11;;;;;;;40.73;37.17;;;;;;;;;;4975901;28;20414;-82
2022/03/20 10:29:48;;;;;;;42.33;38.47;;;;;;;;;;4976291;28;20453;-82
2022/03/20 10:32:15;;;;;;;42.80;38.60;;;;;;;;;;4976264;28;20784;-83
2022/03/20 10:34:50;;;;;;;42.13;38.37;;;;;;;;;;4975969;28;20465;-82
2022/03/20 10:37:19;;;;;;;43.73;39.83;;;;;;;;;;4976078;28;20851;-82
2022/03/20 10:39:47;;;;;;;41.10;37.40;;;;;;;;;;4976029;28;20414;-82
2022/03/20 10:42:14;;;;;;;43.13;39.37;;;;;;;;;;4976003;28;20505;-76
2022/03/20 10:44:42;;;;;;;41.63;37.80;;;;;;;;;;4975772;28;20444;-77
2022/03/20 10:47:13;;;;;;;39.20;36.00;;;;;;;;;;4975620;28;20426;-78
2022/03/20 10:49:41;;;;;;;94.67;85.27;;;;;;;;;;4975619;28;20426;-77
2022/03/20 10:52:09;;;;;;;39.17;35.40;;;;;;;;;;4975649;28;20465;-77
2022/03/20 10:54:41;;;;;;;41.13;37.70;;;;;;;;;;4975214;28;20482;-78
2022/03/20 10:57:09;;;;;;;45.27;40.97;;;;;;;;;;4975395;28;20496;-77
2022/03/20 10:59:37;;;;;;;38.83;35.70;;;;;;;;;;4975282;28;20868;-80
2022/03/20 11:02:05;;;;;;;40.93;37.20;;;;;;;;;;4975493;28;20492;-80
2022/03/20 11:04:33;;;;;;;43.27;39.47;;;;;;;;;;4974756;28;20557;-80
2022/03/20 11:07:06;;;;;;;38.93;35.40;;;;;;;;;;4975124;28;20440;-82
2022/03/20 11:09:33;;;;;;;37.47;34.30;;;;;;;;;;4975409;28;20422;-83
2022/03/20 11:12:05;;;;;;;121.60;91.67;;;;;;;;;;4975170;28;20553;-81
2022/03/20 11:14:35;;;;;;;40.50;36.90;;;;;;;;;;4975156;28;20465;-82
2022/03/20 11:17:04;;;;;;;40.90;37.27;;;;;;;;;;4975608;28;20444;-82
2022/03/20 11:19:33;;;;;;;38.43;35.13;;;;;;;;;;4975339;28;20510;-84
2022/03/20 11:22:02;;;;;;;42.27;38.73;;;;;;;;;;4975261;28;20534;-83
2022/03/20 11:24:30;;;;;;;42.37;38.57;;;;;;;;;;4974858;28;20482;-82
2022/03/20 11:27:00;;;;;;;38.90;35.60;;;;;;;;;;4974980;28;20521;-83
2022/03/20 11:29:29;;;;;;;42.47;38.50;;;;;;;;;;4974776;28;20499;-83
2022/03/20 11:31:57;;;;;;;41.63;37.87;;;;;;;;;;4975037;28;20424;-83
2022/03/20 11:34:25;;;;;;;45.43;41.10;;;;;;;;;;4974674;28;20484;-84
2022/03/20 11:37:06;;;;;;;41.40;37.70;;;;;;;;;;4974532;28;20454;-82
2022/03/20 11:39:33;;;;;;;44.57;40.57;;;;;;;;;;4974639;28;20482;-83
2022/03/20 11:42:19;;;;;;;42.00;38.07;;;;;;;;;;4974819;28;20419;-83
2022/03/20 11:44:53;;;;;;;43.60;39.60;;;;;;;;;;4974548;28;20488;-83
2022/03/20 11:47:22;;;;;;;42.20;38.40;;;;;;;;;;4974802;28;20504;-81
2022/03/20 11:50:04;;;;;;;39.07;35.53;;;;;;;;;;4974750;28;20513;-82
2022/03/20 11:52:44;;;;;;;42.27;38.57;;;;;;;;;;4972481;28;20433;-86
2022/03/20 11:55:25;;;;;;;44.07;40.00;;;;;;;;;;4975025;28;20488;-83
2022/03/20 11:57:52;;;;;;;41.50;37.77;;;;;;;;;;4975613;28;20896;-89
2022/03/20 12:00:24;;;;;;;40.93;37.33;;;;;;;;;;4975339;28;20497;-82
2022/03/20 12:03:07;;;;;;;42.77;39.17;;;;;;;;;;4974485;28;20933;-82
2022/03/20 12:05:39;;;;;;;42.07;38.37;;;;;;;;;;4974857;28;20417;-83
2022/03/20 12:08:20;;;;;;;40.97;37.50;;;;;;;;;;4974698;28;20439;-83
2022/03/20 12:10:51;;;;;;;43.47;39.57;;;;;;;;;;4974529;28;20446;-84
2022/03/20 12:13:25;;;;;;;43.80;40.00;;;;;;;;;;4974848;28;20792;-83
2022/03/20 12:15:55;;;;;;;39.90;36.47;;;;;;;;;;4974306;28;20494;-83
2022/03/20 12:18:22;;;;;;;45.40;41.40;;;;;;;;;;4974296;28;20455;-83
2022/03/20 12:20:59;;;;;;;43.00;38.90;;;;;;;;;;4974354;28;20456;-83
2022/03/20 12:23:38;;;;;;;44.30;40.47;;;;;;;;;;4974574;28;20956;-83
2022/03/20 12:26:23;;;;;;;45.63;41.07;;;;;;;;;;4974643;28;20441;-84
2022/03/20 12:28:51;;;;;;;38.73;35.40;;;;;;;;;;4974393;28;20501;-84
2022/03/20 12:31:26;;;;;;;41.43;37.40;;;;;;;;;;4974524;28;20435;-84
2022/03/20 12:34:09;;;;;;;45.00;40.80;;;;;;;;;;4974422;28;20471;-84
2022/03/20 12:36:36;;;;;;;43.03;38.77;;;;;;;;;;4973950;28;20937;-84
2022/03/20 12:39:03;;;;;;;44.37;40.70;;;;;;;;;;4974903;28;20470;-84
2022/03/20 12:41:31;;;;;;;43.90;40.20;;;;;;;;;;4974465;28;20418;-83
2022/03/20 12:43:59;;;;;;;39.30;35.70;;;;;;;;;;4974303;28;20444;-82
2022/03/20 12:46:29;;;;;;;37.33;33.63;;;;;;;;;;4973995;28;20475;-83
2022/03/20 12:48:57;;;;;;;42.70;39.07;;;;;;;;;;4974245;28;20424;-83
2022/03/20 12:51:35;;;;;;;41.47;37.53;;;;;;;;;;4974383;28;20429;-82
2022/03/20 12:54:20;;;;;;;40.80;37.03;;;;;;;;;;4974274;28;20442;-83
2022/03/20 12:56:59;;;;;;;44.43;40.63;;;;;;;;;;4974436;28;20442;-84
2022/03/20 12:59:27;;;;;;;42.63;38.83;;;;;;;;;;4974392;28;20447;-83
2022/03/20 13:01:55;;;;;;;41.87;38.13;;;;;;;;;;4974006;28;20493;-84
2022/03/20 13:04:23;;;;;;;44.10;40.30;;;;;;;;;;4973875;28;20433;-83
2022/03/20 13:06:52;;;;;;;39.70;36.20;;;;;;;;;;4974057;28;20485;-83
2022/03/20 13:09:19;;;;;;;43.87;39.83;;;;;;;;;;4974243;28;20530;-83
2022/03/20 13:11:51;;;;;;;44.23;40.37;;;;;;;;;;4956498;28;21055;-83
2022/03/20 13:14:19;;;;;;;45.30;41.27;;;;;;;;;;4974066;28;20472;-83
2022/03/20 13:16:50;;;;;;;39.17;35.80;;;;;;;;;;4974039;28;20433;-83
2022/03/20 13:19:27;;;;;;;47.50;43.20;;;;;;;;;;4973119;28;20825;-83
2022/03/20 13:21:54;;;;;;;41.40;37.80;;;;;;;;;;4973648;28;20417;-83
2022/03/20 13:24:29;;;;;;;41.93;38.33;;;;;;;;;;4974089;28;20417;-83
2022/03/20 13:26:57;;;;;;;43.93;40.10;;;;;;;;;;4973599;28;20433;-84
2022/03/20 13:29:25;;;;;;;45.10;40.90;;;;;;;;;;4976506;28;20510;-83
2022/03/20 13:31:59;;;;;;;35.00;32.03;;;;;;;;;;4977578;28;20436;-86
2022/03/20 13:34:28;;;;;;;47.23;42.83;;;;;;;;;;4977482;28;20456;-84
2022/03/20 13:36:56;;;;;;;46.23;41.83;;;;;;;;;;4960442;28;20417;-83
2022/03/20 13:39:23;;;;;;;43.40;39.47;;;;;;;;;;4977667;28;20414;-83
2022/03/20 13:41:50;;;;;;;43.90;40.00;;;;;;;;;;4977585;28;20440;-85
2022/03/20 13:44:18;;;;;;;47.90;43.37;;;;;;;;;;4977595;28;20413;-87
2022/03/20 13:46:45;;;;;;;45.10;41.10;;;;;;;;;;4977493;28;20447;-84
2022/03/20 13:49:13;;;;;;;44.40;40.57;;;;;;;;;;4977468;28;20459;-82
2022/03/20 13:51:42;;;;;;;37.90;34.67;;;;;;;;;;4977652;28;20785;-84
2022/03/20 13:54:10;;;;;;;46.23;42.30;;;;;;;;;;4977509;28;20429;-84
2022/03/20 13:56:38;;;;;;;45.17;41.17;;;;;;;;;;4976820;28;20486;-83
2022/03/20 13:59:06;;;;;;;45.53;41.57;;;;;;;;;;4977225;28;20417;-85
2022/03/20 14:01:42;;;;;;;40.13;36.63;;;;;;;;;;4977419;28;20477;-84
2022/03/20 14:04:11;;;;;;;40.03;36.60;;;;;;;;;;4977453;28;20443;-84
2022/03/20 14:06:39;;;;;;;42.10;38.23;;;;;;;;;;4977425;28;20458;-85
2022/03/20 14:09:09;;;;;;;44.57;40.60;;;;;;;;;;4977113;28;20538;-84
2022/03/20 14:11:36;;;;;;;39.37;35.87;;;;;;;;;;4977267;28;20455;-85
2022/03/20 14:14:05;;;;;;;46.00;42.23;;;;;;;;;;4977299;28;20527;-85
2022/03/20 14:16:34;;;;;;;42.43;38.80;;;;;;;;;;4977030;28;20548;-85
2022/03/20 14:19:04;;;;;;;44.60;40.80;;;;;;;;;;4960177;28;20449;-85
2022/03/20 14:21:32;;;;;;;47.30;43.40;;;;;;;;;;4977288;28;20439;-85
2022/03/20 14:24:02;;;;;;;45.67;41.77;;;;;;;;;;4976983;28;20521;-85
2022/03/20 14:26:31;;;;;;;49.33;44.60;;;;;;;;;;4977059;28;20425;-84
2022/03/20 14:40:14;;;;;;;45.03;41.40;;;;;;;;;;4976395;28;20776;-89
2022/03/20 14:42:45;;;;;;;37.77;34.77;;;;;;;;;;4976966;28;20418;-88
2022/03/20 14:45:15;;;;;;;44.60;40.80;;;;;;;;;;4976724;28;20505;-88
2022/03/20 14:47:44;;;;;;;43.07;38.50;;;;;;;;;;4959741;28;20482;-89
2022/03/20 14:50:11;;;;;;;46.90;42.60;;;;;;;;;;4976865;28;20433;-88
2022/03/20 14:52:39;;;;;;;46.40;42.40;;;;;;;;;;4977021;28;20438;-88
2022/03/20 14:55:10;;;;;;;47.30;43.17;;;;;;;;;;4977058;28;20494;-89
2022/03/20 14:57:37;;;;;;;44.57;40.57;;;;;;;;;;4976492;28;20424;-89
2022/03/20 15:00:07;;;;;;;42.70;38.77;;;;;;;;;;4959494;28;20493;-88
2022/03/20 15:02:35;;;;;;;46.67;42.73;;;;;;;;;;4976581;28;20409;-88
2022/03/20 15:05:02;;;;;;;44.33;40.50;;;;;;;;;;4977126;28;20848;-88
2022/03/20 15:07:29;;;;;;;44.47;40.57;;;;;;;;;;4976629;28;20427;-85
2022/03/20 15:12:41;;;;;;;43.73;39.90;;;;;;;;;;4976386;28;20429;-89